createdAt,value
2018-08-04T00:00:47.591Z,24.87
2018-08-04T00:03:15.771Z,23.83
2018-08-04T00:05:43.935Z,22.77
2018-08-04T00:08:12.147Z,22.40
2018-08-04T00:10:40.317Z,25.30
2018-08-04T00:13:08.558Z,22.50
2018-08-04T00:15:36.762Z,22.97
2018-08-04T00:18:04.936Z,23.10
2018-08-04T00:20:33.112Z,23.10
2018-08-04T00:23:01.304Z,24.10
2018-08-04T00:25:29.541Z,25.13
2018-08-04T00:27:57.733Z,23.93
2018-08-04T00:30:25.920Z,22.67
2018-08-04T00:32:54.124Z,24.57
2018-08-04T00:35:22.334Z,24.60
2018-08-04T00:37:50.500Z,23.90
2018-08-04T00:40:18.698Z,23.97
2018-08-04T00:42:46.925Z,23.03
2018-08-04T00:45:15.169Z,23.50
2018-08-04T00:47:43.395Z,22.90
2018-08-04T00:50:11.642Z,24.53
2018-08-04T00:52:39.866Z,22.60
2018-08-04T00:55:08.120Z,23.63
2018-08-04T00:57:36.302Z,24.43
2018-08-04T01:00:05.064Z,22.87
2018-08-04T01:02:33.268Z,23.53
2018-08-04T01:05:01.449Z,23.20
2018-08-04T01:07:29.650Z,22.20
2018-08-04T01:09:59.969Z,24.07
2018-08-04T01:12:28.252Z,23.33
2018-08-04T01:14:56.483Z,24.03
2018-08-04T01:17:24.764Z,23.77
2018-08-04T01:19:53.011Z,25.87
2018-08-04T01:22:21.228Z,25.33
2018-08-04T01:24:49.505Z,25.30
2018-08-04T01:27:17.762Z,23.37
2018-08-04T01:29:45.981Z,24.27
2018-08-04T01:32:14.232Z,25.03
2018-08-04T01:34:42.449Z,25.03
2018-08-04T01:37:10.730Z,25.10
2018-08-04T01:39:38.988Z,24.03
2018-08-04T01:42:07.261Z,26.30
2018-08-04T01:44:35.465Z,25.10
2018-08-04T01:47:03.724Z,26.27
2018-08-04T01:49:31.920Z,26.37
2018-08-04T01:52:00.160Z,28.30
2018-08-04T01:54:28.406Z,26.17
2018-08-04T01:56:56.728Z,26.20
2018-08-04T01:59:24.930Z,27.10
2018-08-04T02:01:53.211Z,28.23
2018-08-04T02:04:21.478Z,25.97
2018-08-04T02:06:49.699Z,26.17
2018-08-04T02:09:17.929Z,26.40
2018-08-04T02:11:46.140Z,24.20
2018-08-04T02:14:14.408Z,24.37
2018-08-04T02:16:42.643Z,22.50
2018-08-04T02:19:10.896Z,22.27
2018-08-04T02:21:39.160Z,22.70
2018-08-04T02:24:07.360Z,23.00
2018-08-04T02:26:35.584Z,23.10
2018-08-04T02:29:03.816Z,23.93
2018-08-04T02:31:32.033Z,23.00
2018-08-04T02:34:00.288Z,22.07
2018-08-04T02:36:28.514Z,23.73
2018-08-04T02:38:56.723Z,23.20
2018-08-04T02:41:24.917Z,23.10
2018-08-04T02:43:53.149Z,22.03
2018-08-04T02:46:21.339Z,22.00
2018-08-04T02:48:49.529Z,23.87
2018-08-04T02:51:17.732Z,24.07
2018-08-04T02:53:45.901Z,24.03
2018-08-04T02:56:14.146Z,23.97
2018-08-04T02:58:42.333Z,22.90
2018-08-04T03:01:10.572Z,23.10
2018-08-04T03:03:38.770Z,22.27
2018-08-04T03:06:07.009Z,22.97
2018-08-04T03:08:35.392Z,22.13
2018-08-04T03:11:03.573Z,22.00
2018-08-04T03:13:31.972Z,22.23
2018-08-04T03:16:00.245Z,21.40
2018-08-04T03:18:28.475Z,23.07
2018-08-04T03:20:56.748Z,23.20
2018-08-04T03:23:24.970Z,20.30
2018-08-04T03:25:53.189Z,22.37
2018-08-04T03:28:21.439Z,21.93
2018-08-04T03:30:49.626Z,22.43
2018-08-04T03:33:17.817Z,23.70
2018-08-04T03:35:46.124Z,20.70
2018-08-04T03:38:14.360Z,22.73
2018-08-04T03:40:42.649Z,21.57
2018-08-04T03:43:10.864Z,21.17
2018-08-04T03:45:39.074Z,22.47
2018-08-04T03:48:07.265Z,20.50
2018-08-04T03:50:35.453Z,20.97
2018-08-04T03:53:03.681Z,20.97
2018-08-04T03:55:31.864Z,21.03
2018-08-04T03:58:00.098Z,21.47
2018-08-04T04:00:28.259Z,22.23
2018-08-04T04:02:56.427Z,22.03
2018-08-04T04:05:24.603Z,21.73
2018-08-04T04:07:52.826Z,19.80
2018-08-04T04:10:21.067Z,20.07
2018-08-04T04:12:49.373Z,20.07
2018-08-04T04:15:17.588Z,21.53
2018-08-04T04:17:47.497Z,22.57
2018-08-04T04:20:17.313Z,21.50
2018-08-04T04:22:45.540Z,21.50
2018-08-04T04:25:13.804Z,21.83
2018-08-04T04:27:42.461Z,21.80
2018-08-04T04:30:10.718Z,21.03
2018-08-04T04:32:38.979Z,21.10
2018-08-04T04:35:07.168Z,21.50
2018-08-04T04:37:35.473Z,19.77
2018-08-04T04:40:03.743Z,20.40
2018-08-04T04:42:32.317Z,21.10
2018-08-04T04:45:00.586Z,20.50
2018-08-04T04:47:28.877Z,19.93
2018-08-04T04:49:57.143Z,20.80
2018-08-04T04:52:25.440Z,21.07
2018-08-04T04:54:53.691Z,20.43
2018-08-04T04:57:21.951Z,21.43
2018-08-04T04:59:50.210Z,21.43
2018-08-04T05:02:18.434Z,21.10
2018-08-04T05:04:46.663Z,21.27
2018-08-04T05:07:14.852Z,21.47
2018-08-04T05:09:43.067Z,20.47
2018-08-04T05:12:11.381Z,21.90
2018-08-04T05:14:39.594Z,20.50
2018-08-04T05:17:07.831Z,20.40
2018-08-04T05:19:36.017Z,20.30
2018-08-04T05:22:04.206Z,19.50
2018-08-04T05:24:32.428Z,20.67
2018-08-04T05:27:00.637Z,20.30
2018-08-04T05:29:28.829Z,21.50
2018-08-04T05:31:57.045Z,19.40
2018-08-04T05:34:25.252Z,20.50
2018-08-04T05:36:53.415Z,20.90
2018-08-04T05:39:21.653Z,18.30
2018-08-04T05:41:49.838Z,21.33
2018-08-04T05:44:18.077Z,19.50
2018-08-04T05:46:46.287Z,21.23
2018-08-04T05:49:14.452Z,21.40
2018-08-04T05:51:42.622Z,22.07
2018-08-04T05:54:10.833Z,22.43
2018-08-04T05:56:39.054Z,22.40
2018-08-04T05:59:07.251Z,23.30
2018-08-04T06:01:35.510Z,22.97
2018-08-04T06:04:03.862Z,22.97
2018-08-04T06:06:32.115Z,22.20
2018-08-04T06:09:00.304Z,21.80
2018-08-04T06:11:28.515Z,20.87
2018-08-04T06:13:56.717Z,20.97
2018-08-04T06:16:24.927Z,21.10
2018-08-04T06:18:53.093Z,19.83
2018-08-04T06:21:21.328Z,21.40
2018-08-04T06:23:49.529Z,20.47
2018-08-04T06:26:17.736Z,19.87
2018-08-04T06:28:45.925Z,20.80
2018-08-04T06:31:14.108Z,20.10
2018-08-04T06:33:42.293Z,20.40
2018-08-04T06:36:10.494Z,18.73
2018-08-04T06:38:38.752Z,19.10
2018-08-04T06:41:06.966Z,18.43
2018-08-04T06:43:35.201Z,19.07
2018-08-04T06:46:03.460Z,18.93
2018-08-04T06:48:31.673Z,19.70
2018-08-04T06:50:59.856Z,17.87
2018-08-04T06:53:28.040Z,18.90
2018-08-04T06:58:42.504Z,18.20
2018-08-04T07:01:10.737Z,18.07
2018-08-04T07:03:38.929Z,18.90
2018-08-04T07:06:07.139Z,17.43
2018-08-04T07:08:35.522Z,18.50
2018-08-04T07:11:03.694Z,19.13
2018-08-04T07:13:31.916Z,18.50
2018-08-04T07:16:00.094Z,19.90
2018-08-04T07:18:28.332Z,18.30
2018-08-04T07:20:56.532Z,18.30
2018-08-04T07:23:24.728Z,18.60
2018-08-04T07:25:52.888Z,17.90
2018-08-04T07:28:21.135Z,19.17
2018-08-04T07:30:49.364Z,17.50
2018-08-04T07:33:17.596Z,19.47
2018-08-04T07:35:45.977Z,18.53
2018-08-04T07:38:14.159Z,17.80
2018-08-04T07:40:42.413Z,17.40
2018-08-04T07:43:10.608Z,16.53
2018-08-04T07:45:38.848Z,16.97
2018-08-04T07:48:06.987Z,18.60
2018-08-04T07:50:35.201Z,17.97
2018-08-04T07:53:03.384Z,17.17
2018-08-04T07:55:31.741Z,17.23
2018-08-04T07:57:59.936Z,17.93
2018-08-04T08:00:28.140Z,17.77
2018-08-04T08:02:56.348Z,17.63
2018-08-04T08:05:24.592Z,17.70
2018-08-04T08:07:52.824Z,16.33
2018-08-04T08:10:21.122Z,17.20
2018-08-04T08:15:47.963Z,17.40
2018-08-04T08:18:16.158Z,17.10
2018-08-04T08:20:44.377Z,16.50
2018-08-04T08:23:12.622Z,16.57
2018-08-04T08:25:45.197Z,17.17
2018-08-04T08:28:13.353Z,17.30
2018-08-04T08:30:41.546Z,17.80
2018-08-04T08:33:15.644Z,17.33
2018-08-04T08:35:43.896Z,18.30
2018-08-04T08:38:12.090Z,15.67
2018-08-04T08:40:40.279Z,17.30
2018-08-04T08:43:08.458Z,17.97
2018-08-04T08:45:36.695Z,16.77
2018-08-04T08:48:04.972Z,18.50
2018-08-04T08:50:33.339Z,16.40
2018-08-04T08:53:01.591Z,15.07
2018-08-04T08:55:29.762Z,17.30
2018-08-04T08:57:57.941Z,16.50
2018-08-04T09:00:26.149Z,16.53
2018-08-04T09:02:54.362Z,16.40
2018-08-04T09:05:22.564Z,17.07
2018-08-04T09:07:50.786Z,14.67
2018-08-04T09:10:18.982Z,15.43
2018-08-04T09:12:47.176Z,15.33
2018-08-04T09:15:15.344Z,15.63
2018-08-04T09:17:43.549Z,14.43
2018-08-04T09:20:11.726Z,15.80
2018-08-04T09:22:39.972Z,14.60
2018-08-04T09:25:08.832Z,16.90
2018-08-04T09:27:37.945Z,15.37
2018-08-04T09:30:18.390Z,14.70
2018-08-04T09:32:46.602Z,14.27
2018-08-04T09:35:15.552Z,15.60
2018-08-04T09:37:44.052Z,13.23
2018-08-04T09:40:13.864Z,13.83
2018-08-04T09:42:42.848Z,14.00
2018-08-04T09:45:11.202Z,14.50
2018-08-04T09:47:40.136Z,15.40
2018-08-04T09:50:09.964Z,14.60
2018-08-04T09:52:38.177Z,14.20
2018-08-04T09:55:07.028Z,13.83
2018-08-04T09:57:35.267Z,13.80
2018-08-04T10:00:04.645Z,14.20
2018-08-04T10:02:32.837Z,13.33
2018-08-04T10:05:01.108Z,14.00
2018-08-04T10:07:29.302Z,14.83
2018-08-04T10:09:57.520Z,14.73
2018-08-04T10:12:25.737Z,13.73
2018-08-04T10:14:53.941Z,13.90
2018-08-04T10:17:22.129Z,13.77
2018-08-04T10:19:50.319Z,13.80
2018-08-04T10:22:18.500Z,13.90
2018-08-04T10:24:46.705Z,14.07
2018-08-04T10:27:14.878Z,13.07
2018-08-04T10:29:43.062Z,13.73
2018-08-04T10:32:11.355Z,14.00
2018-08-04T10:34:39.473Z,13.17
2018-08-04T10:37:07.659Z,13.27
2018-08-04T10:39:35.880Z,12.87
2018-08-04T10:42:04.059Z,13.90
2018-08-04T10:44:32.297Z,13.57
2018-08-04T10:47:01.244Z,11.90
2018-08-04T10:49:29.567Z,12.30
2018-08-04T10:51:57.778Z,12.80
2018-08-04T10:54:25.995Z,12.77
2018-08-04T10:56:54.255Z,10.93
2018-08-04T10:59:22.495Z,11.40
2018-08-04T11:01:50.735Z,11.43
2018-08-04T11:04:18.974Z,11.43
2018-08-04T11:06:47.168Z,10.20
2018-08-04T11:09:15.383Z,11.00
2018-08-04T11:11:43.606Z,10.17
2018-08-04T11:14:11.812Z,10.23
2018-08-04T11:16:40.034Z,10.87
2018-08-04T11:19:08.240Z,10.70
2018-08-04T11:21:36.470Z,11.23
2018-08-04T11:24:04.712Z,10.13
2018-08-04T11:26:32.888Z,9.33
2018-08-04T11:29:01.059Z,8.60
2018-08-04T11:31:29.221Z,8.63
2018-08-04T11:33:57.369Z,8.63
2018-08-04T11:36:25.596Z,8.47
2018-08-04T11:38:53.763Z,8.30
2018-08-04T11:41:21.951Z,8.70
2018-08-04T11:43:50.209Z,8.87
2018-08-04T11:46:18.487Z,8.83
2018-08-04T11:48:46.681Z,8.90
2018-08-04T11:51:14.892Z,9.27
2018-08-04T11:53:43.039Z,7.83
2018-08-04T11:56:11.228Z,7.63
2018-08-04T11:58:39.467Z,7.73
2018-08-04T12:01:07.702Z,7.77
2018-08-04T12:03:35.953Z,8.57
2018-08-04T12:06:04.141Z,8.40
2018-08-04T12:08:32.388Z,8.17
2018-08-04T12:11:00.645Z,8.20
2018-08-04T12:13:28.832Z,8.10
2018-08-04T12:15:57.015Z,8.47
2018-08-04T12:18:25.278Z,8.20
2018-08-04T12:20:53.450Z,8.43
2018-08-04T12:23:21.668Z,7.40
2018-08-04T12:25:49.864Z,9.10
2018-08-04T12:28:18.079Z,8.30
2018-08-04T12:30:46.241Z,8.50
2018-08-04T12:33:14.441Z,8.57
2018-08-04T12:35:42.642Z,8.20
2018-08-04T12:38:10.836Z,8.70
2018-08-04T12:40:39.072Z,8.90
2018-08-04T12:43:07.298Z,8.73
2018-08-04T12:45:35.569Z,8.40
2018-08-04T12:48:03.720Z,8.70
2018-08-04T12:50:31.876Z,8.13
2018-08-04T12:53:00.038Z,8.30
2018-08-04T12:55:28.245Z,8.10
2018-08-04T12:57:56.452Z,7.23
2018-08-04T13:00:24.673Z,7.90
2018-08-04T13:02:52.832Z,8.47
2018-08-04T13:05:21.062Z,8.17
2018-08-04T13:07:49.314Z,8.47
2018-08-04T13:10:17.508Z,8.27
2018-08-04T13:12:45.690Z,8.20
2018-08-04T13:15:13.916Z,7.77
2018-08-04T13:17:42.098Z,8.40
2018-08-04T13:20:10.278Z,8.37
2018-08-04T13:22:38.497Z,7.33
2018-08-04T13:25:06.669Z,8.10
2018-08-04T13:27:34.854Z,7.90
2018-08-04T13:30:03.079Z,7.70
2018-08-04T13:32:31.262Z,8.43
2018-08-04T13:34:59.496Z,8.17
2018-08-04T13:37:27.677Z,7.20
2018-08-04T13:39:55.869Z,7.77
2018-08-04T13:42:24.054Z,7.33
2018-08-04T13:44:52.236Z,7.57
2018-08-04T13:47:20.457Z,7.73
2018-08-04T13:49:48.638Z,8.20
2018-08-04T13:52:16.804Z,7.40
2018-08-04T13:54:44.965Z,7.23
2018-08-04T13:57:13.158Z,8.63
2018-08-04T13:59:41.351Z,9.70
2018-08-04T14:02:09.534Z,9.23
2018-08-04T14:04:37.700Z,8.07
2018-08-04T14:07:05.992Z,8.20
2018-08-04T14:09:34.208Z,8.17
2018-08-04T14:12:02.423Z,8.10
2018-08-04T14:14:30.572Z,8.03
2018-08-04T14:16:58.743Z,7.97
2018-08-04T14:19:26.936Z,8.00
2018-08-04T14:21:55.128Z,7.17
2018-08-04T14:24:23.341Z,7.20
2018-08-04T14:26:51.504Z,7.43
2018-08-04T14:29:20.197Z,7.13
2018-08-04T14:31:48.385Z,7.40
2018-08-04T14:34:16.659Z,7.73
2018-08-04T14:36:44.806Z,7.27
2018-08-04T14:39:13.745Z,7.23
2018-08-04T14:41:42.484Z,8.50
2018-08-04T14:44:10.711Z,7.00
2018-08-04T14:46:38.942Z,7.53
2018-08-04T14:49:07.124Z,7.57
2018-08-04T14:51:35.373Z,8.40
2018-08-04T14:54:03.616Z,8.57
2018-08-04T14:56:31.803Z,7.47
2018-08-04T14:59:00.019Z,8.43
2018-08-04T15:01:28.191Z,7.67
2018-08-04T15:03:56.431Z,8.37
2018-08-04T15:06:24.584Z,7.67
2018-08-04T15:08:52.783Z,8.13
2018-08-04T15:11:20.982Z,8.70
2018-08-04T15:13:49.253Z,8.00
2018-08-04T15:16:17.472Z,7.87
2018-08-04T15:18:45.705Z,7.60
2018-08-04T15:21:13.884Z,7.50
2018-08-04T15:23:42.105Z,8.30
2018-08-04T15:26:10.308Z,8.50
2018-08-04T15:28:38.536Z,7.37
2018-08-04T15:31:06.749Z,7.60
2018-08-04T15:33:34.985Z,7.80
2018-08-04T15:36:03.197Z,8.30
2018-08-04T15:38:31.408Z,7.80
2018-08-04T15:40:59.620Z,8.10
2018-08-04T15:43:27.788Z,8.10
2018-08-04T15:45:56.024Z,7.60
2018-08-04T15:48:24.203Z,8.30
2018-08-04T15:50:52.376Z,7.67
2018-08-04T15:53:20.577Z,7.70
2018-08-04T15:55:48.808Z,7.30
2018-08-04T15:58:17.024Z,7.47
2018-08-04T16:00:45.280Z,8.43
2018-08-04T16:03:13.536Z,8.37
2018-08-04T16:05:41.769Z,8.90
2018-08-04T16:08:10.017Z,8.73
2018-08-04T16:10:38.282Z,9.87
2018-08-04T16:13:06.519Z,9.43
2018-08-04T16:15:34.743Z,11.17
2018-08-04T16:18:02.976Z,12.00
2018-08-04T16:20:31.202Z,12.07
2018-08-04T16:22:59.440Z,14.53
2018-08-04T16:25:27.652Z,11.83
2018-08-04T16:27:55.845Z,10.73
2018-08-04T16:30:24.052Z,9.23
2018-08-04T16:32:52.252Z,10.33
2018-08-04T16:35:20.435Z,9.13
2018-08-04T16:37:48.647Z,9.20
2018-08-04T16:40:16.849Z,9.60
2018-08-04T16:42:45.009Z,10.33
2018-08-04T16:45:13.253Z,9.80
2018-08-04T16:47:41.475Z,9.60
2018-08-04T16:50:09.637Z,10.40
2018-08-04T16:52:37.844Z,10.60
2018-08-04T16:55:06.046Z,10.20
2018-08-04T16:57:34.285Z,11.40
2018-08-04T17:00:02.486Z,10.90
2018-08-04T17:02:30.693Z,10.27
2018-08-04T17:04:58.855Z,11.70
2018-08-04T17:07:27.103Z,11.63
2018-08-04T17:09:55.248Z,10.70
2018-08-04T17:12:23.498Z,11.53
2018-08-04T17:14:51.653Z,10.67
2018-08-04T17:17:19.882Z,11.67
2018-08-04T17:19:48.062Z,10.23
2018-08-04T17:22:16.356Z,10.00
2018-08-04T17:24:44.545Z,10.60
2018-08-04T17:27:12.741Z,10.23
2018-08-04T17:29:40.946Z,10.67
2018-08-04T17:32:09.141Z,10.00
2018-08-04T17:34:37.319Z,9.63
2018-08-04T17:37:05.869Z,10.33
2018-08-04T17:39:34.061Z,10.80
2018-08-04T17:42:02.245Z,10.60
2018-08-04T17:44:30.440Z,11.30
2018-08-04T17:46:58.616Z,19.80
2018-08-04T17:49:26.795Z,25.07
2018-08-04T17:51:54.972Z,14.23
2018-08-04T17:54:23.162Z,11.60
2018-08-04T17:56:51.325Z,12.57
2018-08-04T17:59:19.521Z,11.13
2018-08-04T18:01:47.688Z,12.80
2018-08-04T18:04:15.917Z,12.00
2018-08-04T18:06:44.117Z,12.23
2018-08-04T18:09:12.331Z,11.43
2018-08-04T18:11:40.504Z,12.10
2018-08-04T18:14:08.685Z,11.70
2018-08-04T18:16:37.016Z,12.03
2018-08-04T18:19:05.217Z,11.47
2018-08-04T18:21:33.557Z,12.20
2018-08-04T18:24:01.780Z,12.47
2018-08-04T18:26:29.940Z,12.93
2018-08-04T18:28:58.133Z,12.10
2018-08-04T18:31:26.304Z,11.90
2018-08-04T18:33:54.542Z,12.70
2018-08-04T18:36:22.708Z,12.33
2018-08-04T18:38:50.925Z,11.63
2018-08-04T18:41:19.124Z,12.10
2018-08-04T18:43:47.405Z,13.63
2018-08-04T18:46:15.652Z,11.80
2018-08-04T18:48:44.035Z,12.33
2018-08-04T18:51:12.408Z,12.03
2018-08-04T18:53:40.629Z,12.47
2018-08-04T18:56:08.841Z,11.00
2018-08-04T18:58:37.066Z,11.97
2018-08-04T19:01:05.274Z,12.03
2018-08-04T19:03:33.534Z,13.10
2018-08-04T19:06:01.809Z,12.23
2018-08-04T19:08:30.021Z,13.90
2018-08-04T19:10:58.201Z,12.53
2018-08-04T19:13:26.414Z,11.83
2018-08-04T19:15:54.700Z,11.60
2018-08-04T19:18:22.854Z,12.13
2018-08-04T19:20:51.093Z,12.73
2018-08-04T19:23:19.246Z,12.37
2018-08-04T19:25:47.457Z,11.67
2018-08-04T19:28:15.687Z,13.93
2018-08-04T19:30:43.890Z,12.63
2018-08-04T19:33:12.076Z,11.80
2018-08-04T19:35:40.228Z,12.33
2018-08-04T19:38:08.428Z,12.00
2018-08-04T19:40:36.853Z,10.97
2018-08-04T19:43:05.089Z,12.67
2018-08-04T19:45:49.693Z,12.33
2018-08-04T19:48:17.982Z,13.90
2018-08-04T19:50:46.158Z,11.80
2018-08-04T19:53:14.643Z,11.10
2018-08-04T19:55:42.895Z,11.80
2018-08-04T19:58:11.114Z,12.77
2018-08-04T20:00:39.406Z,14.00
2018-08-04T20:03:07.874Z,12.47
2018-08-04T20:05:36.076Z,11.40
2018-08-04T20:08:04.333Z,12.53
2018-08-04T20:10:32.531Z,12.43
2018-08-04T20:13:00.760Z,12.80
2018-08-04T20:15:28.990Z,13.23
2018-08-04T20:17:57.205Z,13.33
2018-08-04T20:20:25.392Z,12.70
2018-08-04T20:22:53.584Z,13.07
2018-08-04T20:25:21.796Z,12.50
2018-08-04T20:27:50.025Z,11.97
2018-08-04T20:30:18.234Z,12.93
2018-08-04T20:32:46.764Z,12.73
2018-08-04T20:35:14.952Z,12.00
2018-08-04T20:37:43.192Z,13.37
2018-08-04T20:40:11.432Z,13.13
2018-08-04T20:42:39.666Z,13.67
2018-08-04T20:45:07.980Z,12.77
2018-08-04T20:47:36.230Z,12.33
2018-08-04T20:50:04.602Z,13.30
2018-08-04T20:52:32.775Z,12.40
2018-08-04T20:55:01.031Z,12.90
2018-08-04T20:57:29.281Z,15.27
2018-08-04T20:59:57.625Z,12.93
2018-08-04T21:02:25.861Z,11.37
2018-08-04T21:04:54.109Z,12.87
2018-08-04T21:07:38.440Z,13.17
2018-08-04T21:10:06.680Z,12.73
2018-08-04T21:12:34.900Z,13.97
2018-08-04T21:15:03.258Z,13.30
2018-08-04T21:17:31.492Z,13.03
2018-08-04T21:19:59.763Z,13.40
2018-08-04T21:22:27.975Z,14.10
2018-08-04T21:24:56.165Z,13.93
2018-08-04T21:27:24.362Z,14.10
2018-08-04T21:29:52.577Z,14.30
2018-08-04T21:32:20.788Z,13.70
2018-08-04T21:34:49.105Z,14.03
2018-08-04T21:37:17.305Z,13.70
2018-08-04T21:39:45.549Z,14.60
2018-08-04T21:42:13.793Z,14.97
2018-08-04T21:44:42.054Z,14.93
2018-08-04T21:47:10.283Z,14.70
2018-08-04T21:49:39.316Z,15.37
2018-08-04T21:52:07.566Z,14.67
2018-08-04T21:54:35.769Z,15.00
2018-08-04T21:57:03.961Z,15.00
2018-08-04T21:59:32.113Z,15.03
2018-08-04T22:02:00.333Z,15.70
2018-08-04T22:04:28.499Z,14.50
2018-08-04T22:08:00.639Z,14.50
2018-08-04T22:13:28.393Z,14.97
2018-08-04T22:15:56.593Z,14.50
2018-08-04T22:18:24.753Z,15.30
2018-08-04T22:20:52.973Z,15.00
2018-08-04T22:23:21.192Z,15.10
2018-08-04T22:25:49.408Z,15.60
2018-08-04T22:28:17.594Z,15.60
2018-08-04T22:30:45.810Z,15.33
2018-08-04T22:33:13.985Z,15.20
2018-08-04T22:35:42.183Z,14.73
2018-08-04T22:38:10.372Z,14.40
2018-08-04T22:40:38.589Z,15.77
2018-08-04T22:43:06.822Z,16.57
2018-08-04T22:46:06.941Z,16.40
2018-08-04T22:48:35.262Z,15.40
2018-08-04T22:51:03.515Z,15.70
2018-08-04T22:53:31.782Z,14.73
2018-08-04T22:56:00.050Z,15.07
2018-08-04T22:58:28.291Z,15.00
2018-08-04T23:00:56.543Z,15.63
2018-08-04T23:03:24.783Z,15.50
2018-08-04T23:05:53.020Z,15.27
2018-08-04T23:08:21.235Z,16.07
2018-08-04T23:10:49.440Z,15.60
2018-08-04T23:13:17.845Z,13.37
2018-08-04T23:15:46.062Z,14.50
2018-08-04T23:18:14.312Z,13.27
2018-08-04T23:20:42.517Z,14.27
2018-08-04T23:23:11.372Z,13.40
2018-08-04T23:25:39.582Z,13.83
2018-08-04T23:28:07.853Z,12.53
2018-08-04T23:30:36.069Z,13.90
2018-08-04T23:33:04.321Z,14.43
2018-08-04T23:35:32.548Z,14.67
2018-08-04T23:38:00.744Z,12.93
2018-08-04T23:40:28.954Z,13.60
2018-08-04T23:42:57.166Z,14.50
2018-08-04T23:45:25.384Z,14.20
2018-08-04T23:47:53.614Z,12.77
2018-08-04T23:50:21.806Z,13.00
2018-08-04T23:52:49.993Z,12.40
2018-08-04T23:55:18.244Z,13.10
2018-08-04T23:57:46.441Z,12.90
